createdAt,value
2023-05-24T00:00:31.902Z,98.73
2023-05-24T00:03:21.856Z,98.87
2023-05-24T00:05:49.393Z,98.96
2023-05-24T00:08:17.050Z,98.60
2023-05-24T00:10:44.510Z,99.27
2023-05-24T00:13:12.321Z,98.83
2023-05-24T00:15:39.643Z,98.37
2023-05-24T00:18:07.353Z,99.28
2023-05-24T00:20:34.853Z,100.00
2023-05-24T00:23:02.526Z,99.53
2023-05-24T00:25:29.842Z,99.50
2023-05-24T00:27:57.387Z,99.41
2023-05-24T00:30:24.703Z,98.98
2023-05-24T00:32:52.450Z,99.07
2023-05-24T00:35:19.859Z,99.06
2023-05-24T00:37:48.246Z,98.82
2023-05-24T00:40:15.555Z,98.65
2023-05-24T00:42:43.098Z,98.87
2023-05-24T00:45:11.072Z,98.87
2023-05-24T00:47:38.911Z,98.98
2023-05-24T00:50:09.970Z,98.90
2023-05-24T00:52:37.939Z,98.78
2023-05-24T00:55:07.348Z,98.29
2023-05-24T00:57:36.974Z,98.12
2023-05-24T01:00:07.862Z,97.83
2023-05-24T01:02:35.700Z,97.92
2023-05-24T01:05:04.152Z,97.67
2023-05-24T01:07:59.475Z,97.73
2023-05-24T01:10:47.822Z,97.84
2023-05-24T01:13:47.863Z,97.07
2023-05-24T01:16:26.337Z,96.30
2023-05-24T01:19:00.748Z,95.93
2023-05-24T01:22:20.665Z,95.49
2023-05-24T01:25:13.168Z,95.35
2023-05-24T01:27:43.366Z,95.78
2023-05-24T01:30:12.265Z,95.56
2023-05-24T01:32:40.000Z,95.41
2023-05-24T01:35:08.137Z,95.69
2023-05-24T01:37:35.601Z,95.11
2023-05-24T01:40:04.634Z,95.34
2023-05-24T01:42:49.081Z,95.17
2023-05-24T01:45:42.258Z,96.17
2023-05-24T01:48:33.899Z,95.42
2023-05-24T01:51:07.932Z,95.08
2023-05-24T01:53:46.605Z,95.76
2023-05-24T01:56:19.685Z,95.37
2023-05-24T01:58:52.839Z,94.12
2023-05-24T02:01:20.983Z,93.83
2023-05-24T02:03:48.483Z,93.45
2023-05-24T02:06:16.075Z,93.43
2023-05-24T02:08:43.436Z,93.32
2023-05-24T02:11:11.069Z,93.31
2023-05-24T02:13:38.329Z,93.56
2023-05-24T02:16:06.212Z,93.48
2023-05-24T02:18:34.977Z,93.61
2023-05-24T02:21:03.334Z,93.24
2023-05-24T02:23:30.805Z,92.97
2023-05-24T02:25:58.404Z,93.42
2023-05-24T02:28:25.732Z,92.87
2023-05-24T02:30:53.360Z,92.42
2023-05-24T02:33:21.240Z,92.33
2023-05-24T02:35:49.001Z,92.25
2023-05-24T02:38:16.400Z,93.38
2023-05-24T02:40:44.204Z,92.46
2023-05-24T02:43:11.688Z,92.23
2023-05-24T02:45:39.385Z,92.56
2023-05-24T02:48:06.825Z,92.58
2023-05-24T02:50:34.743Z,92.38
2023-05-24T02:53:02.005Z,92.75
2023-05-24T02:55:29.645Z,92.94
2023-05-24T02:57:56.995Z,93.24
2023-05-24T03:00:24.661Z,93.10
2023-05-24T03:02:52.708Z,92.71
2023-05-24T03:05:20.569Z,92.80
2023-05-24T03:07:47.875Z,92.90
2023-05-24T03:10:16.074Z,93.35
2023-05-24T03:12:43.429Z,92.64
2023-05-24T03:15:11.827Z,92.79
2023-05-24T03:17:39.154Z,92.60
2023-05-24T03:20:08.068Z,92.46
2023-05-24T03:22:35.400Z,92.39
2023-05-24T03:25:03.019Z,92.62
2023-05-24T03:27:30.416Z,91.97
2023-05-24T03:29:58.039Z,91.71
2023-05-24T03:32:25.596Z,91.96
2023-05-24T03:34:53.408Z,91.72
2023-05-24T03:37:20.860Z,91.44
2023-05-24T03:39:48.471Z,90.87
2023-05-24T03:42:16.028Z,91.43
2023-05-24T03:44:44.093Z,91.44
2023-05-24T03:47:11.464Z,90.91
2023-05-24T03:49:39.182Z,91.14
2023-05-24T03:52:06.534Z,90.91
2023-05-24T03:54:34.116Z,91.16
2023-05-24T03:57:01.861Z,90.56
2023-05-24T03:59:31.023Z,90.82
2023-05-24T04:01:58.518Z,90.66
2023-05-24T04:04:27.111Z,91.70
2023-05-24T04:06:54.418Z,91.63
2023-05-24T04:09:23.794Z,91.66
2023-05-24T04:11:51.306Z,92.36
2023-05-24T04:14:18.907Z,92.34
2023-05-24T04:16:46.950Z,92.48
2023-05-24T04:19:14.735Z,92.62
2023-05-24T04:21:42.136Z,93.04
2023-05-24T04:24:09.799Z,92.88
2023-05-24T04:26:37.924Z,93.81
2023-05-24T04:29:05.618Z,94.15
2023-05-24T04:31:34.402Z,95.26
2023-05-24T04:34:02.340Z,95.00
2023-05-24T04:36:31.561Z,95.21
2023-05-24T04:39:03.060Z,95.60
2023-05-24T04:41:35.824Z,96.92
2023-05-24T04:44:03.584Z,96.46
2023-05-24T04:46:31.592Z,96.41
2023-05-24T04:48:59.337Z,95.67
2023-05-24T04:51:26.771Z,96.78
2023-05-24T04:53:54.652Z,95.05
2023-05-24T04:56:23.034Z,94.30
2023-05-24T04:58:50.691Z,97.81
2023-05-24T05:01:18.419Z,96.01
2023-05-24T05:03:46.467Z,94.93
2023-05-24T05:06:14.225Z,93.89
2023-05-24T05:08:41.942Z,93.70
2023-05-24T05:11:09.876Z,92.69
2023-05-24T05:13:37.520Z,92.55
2023-05-24T05:16:05.560Z,92.29
2023-05-24T05:18:34.175Z,93.07
2023-05-24T05:21:01.459Z,92.91
2023-05-24T05:23:30.259Z,92.94
2023-05-24T05:25:57.875Z,92.74
2023-05-24T05:28:25.686Z,95.09
2023-05-24T05:30:53.035Z,93.71
2023-05-24T05:33:20.727Z,93.35
2023-05-24T05:35:48.208Z,93.45
2023-05-24T05:38:15.999Z,93.44
2023-05-24T05:40:43.615Z,95.13
2023-05-24T05:43:11.406Z,94.72
2023-05-24T05:45:38.815Z,94.15
2023-05-24T05:48:06.768Z,93.90
2023-05-24T05:50:34.297Z,94.44
2023-05-24T05:53:02.002Z,93.87
2023-05-24T05:55:29.336Z,93.37
2023-05-24T05:57:57.117Z,92.42
2023-05-24T06:00:24.431Z,92.08
2023-05-24T06:02:52.232Z,91.63
2023-05-24T06:05:19.922Z,91.62
2023-05-24T06:07:47.685Z,91.25
2023-05-24T06:10:15.080Z,92.87
2023-05-24T06:12:42.863Z,92.68
2023-05-24T06:15:11.111Z,91.29
2023-05-24T06:17:38.855Z,90.71
2023-05-24T06:20:12.167Z,90.36
2023-05-24T06:22:40.051Z,90.28
2023-05-24T06:25:07.832Z,90.07
2023-05-24T06:27:35.679Z,89.80
2023-05-24T06:30:03.825Z,90.04
2023-05-24T06:32:31.501Z,89.04
2023-05-24T06:35:05.663Z,89.24
2023-05-24T06:37:33.715Z,89.04
2023-05-24T06:40:01.095Z,88.80
2023-05-24T06:42:28.676Z,88.81
2023-05-24T06:44:56.160Z,87.18
2023-05-24T06:47:23.961Z,87.11
2023-05-24T06:49:52.462Z,86.43
2023-05-24T06:52:20.126Z,87.01
2023-05-24T06:54:47.499Z,86.81
2023-05-24T06:57:15.209Z,86.73
2023-05-24T06:59:42.563Z,86.71
2023-05-24T07:02:10.786Z,86.05
2023-05-24T07:04:41.264Z,86.56
2023-05-24T07:07:13.288Z,86.84
2023-05-24T07:09:42.488Z,86.78
2023-05-24T07:12:10.536Z,86.83
2023-05-24T07:14:38.112Z,85.97
2023-05-24T07:17:06.603Z,85.61
2023-05-24T07:19:36.163Z,85.46
2023-05-24T07:22:03.804Z,85.16
2023-05-24T07:24:31.439Z,84.69
2023-05-24T07:26:59.124Z,85.55
2023-05-24T07:29:26.952Z,84.72
2023-05-24T07:31:56.669Z,85.07
2023-05-24T07:34:27.665Z,85.23
2023-05-24T07:36:55.365Z,84.27
2023-05-24T07:39:23.392Z,84.55
2023-05-24T07:41:51.317Z,84.03
2023-05-24T07:44:19.909Z,84.10
2023-05-24T07:46:47.684Z,84.04
2023-05-24T07:49:15.164Z,83.65
2023-05-24T07:51:42.919Z,83.52
2023-05-24T07:54:10.277Z,84.00
2023-05-24T07:56:37.906Z,84.98
2023-05-24T07:59:05.419Z,83.75
2023-05-24T08:01:34.581Z,83.05
2023-05-24T08:04:05.214Z,83.06
2023-05-24T08:06:33.141Z,82.75
2023-05-24T08:09:00.616Z,83.33
2023-05-24T08:11:28.386Z,83.57
2023-05-24T08:13:55.734Z,83.90
2023-05-24T08:16:25.022Z,82.92
2023-05-24T08:18:54.762Z,83.18
2023-05-24T08:21:23.780Z,83.57
2023-05-24T08:23:51.300Z,85.13
2023-05-24T08:26:21.081Z,83.53
2023-05-24T08:28:48.598Z,83.85
2023-05-24T08:31:16.527Z,83.92
2023-05-24T08:33:44.401Z,83.83
2023-05-24T08:36:12.397Z,83.24
2023-05-24T08:38:39.861Z,82.93
2023-05-24T08:41:08.608Z,82.03
2023-05-24T08:43:36.726Z,81.91
2023-05-24T08:46:06.018Z,81.90
2023-05-24T08:48:42.153Z,81.13
2023-05-24T08:51:10.413Z,81.52
2023-05-24T08:53:39.925Z,80.65
2023-05-24T08:56:10.483Z,79.89
2023-05-24T08:58:40.611Z,80.22
2023-05-24T09:01:09.207Z,80.49
2023-05-24T09:03:38.849Z,80.72
2023-05-24T09:06:12.358Z,80.55
2023-05-24T09:08:43.883Z,81.71
2023-05-24T09:11:16.131Z,82.81
2023-05-24T09:13:46.082Z,82.71
2023-05-24T09:16:15.320Z,81.78
2023-05-24T09:18:45.817Z,81.34
2023-05-24T09:21:14.155Z,81.34
2023-05-24T09:23:42.035Z,81.70
2023-05-24T09:26:11.835Z,81.31
2023-05-24T09:28:41.841Z,80.17
2023-05-24T09:31:09.671Z,79.66
2023-05-24T09:33:39.020Z,79.95
2023-05-24T09:36:07.780Z,78.26
2023-05-24T09:38:36.679Z,77.02
2023-05-24T09:41:07.320Z,76.47
2023-05-24T09:43:47.664Z,75.60
2023-05-24T09:46:21.951Z,74.91
2023-05-24T09:49:06.859Z,74.64
2023-05-24T09:51:41.235Z,74.17
2023-05-24T09:54:09.891Z,75.36
2023-05-24T09:56:40.742Z,74.21
2023-05-24T09:59:09.976Z,72.53
2023-05-24T10:01:38.352Z,72.75
2023-05-24T10:04:10.273Z,72.53
2023-05-24T10:06:43.153Z,71.33
2023-05-24T10:09:11.337Z,71.08
2023-05-24T10:11:40.028Z,70.54
2023-05-24T10:14:10.949Z,70.02
2023-05-24T10:16:39.026Z,70.55
2023-05-24T10:19:07.432Z,70.01
2023-05-24T10:21:41.512Z,69.06
2023-05-24T10:24:11.844Z,68.24
2023-05-24T10:26:42.629Z,68.20
2023-05-24T10:29:29.604Z,68.79
2023-05-24T10:31:58.456Z,68.86
2023-05-24T10:34:26.852Z,68.61
2023-05-24T10:36:55.245Z,68.63
2023-05-24T10:39:23.341Z,68.09
2023-05-24T10:41:51.127Z,68.00
2023-05-24T10:44:21.280Z,68.64
2023-05-24T10:47:09.708Z,68.79
2023-05-24T10:49:39.801Z,68.15
2023-05-24T10:52:10.271Z,68.80
2023-05-24T10:54:39.776Z,69.71
2023-05-24T10:57:08.940Z,69.88
2023-05-24T10:59:39.607Z,70.40
2023-05-24T11:02:13.108Z,70.68
2023-05-24T11:04:47.795Z,70.65
2023-05-24T11:07:17.268Z,69.81
2023-05-24T11:09:56.230Z,69.83
2023-05-24T11:12:33.081Z,69.97
2023-05-24T11:15:03.386Z,69.12
2023-05-24T11:17:31.199Z,69.27
2023-05-24T11:20:00.776Z,68.39
2023-05-24T11:22:29.130Z,67.71
2023-05-24T11:24:57.944Z,67.85
2023-05-24T11:27:26.241Z,67.61
2023-05-24T11:29:54.287Z,67.96
2023-05-24T11:32:24.175Z,66.14
2023-05-24T11:34:51.929Z,65.65
2023-05-24T11:37:26.268Z,66.38
2023-05-24T11:39:59.234Z,66.87
2023-05-24T11:42:29.586Z,66.92
2023-05-24T11:44:57.099Z,67.33
2023-05-24T11:47:25.114Z,67.16
2023-05-24T11:49:52.761Z,67.24
2023-05-24T11:52:21.408Z,67.78
2023-05-24T11:54:50.887Z,68.36
2023-05-24T11:57:30.769Z,68.31
2023-05-24T11:59:58.659Z,68.52
2023-05-24T12:02:26.290Z,68.25
2023-05-24T12:04:54.280Z,68.78
2023-05-24T12:07:24.153Z,69.56
2023-05-24T12:09:51.538Z,68.18
2023-05-24T12:12:24.339Z,67.42
2023-05-24T12:14:56.895Z,67.37
2023-05-24T12:17:24.621Z,66.66
2023-05-24T12:19:52.234Z,65.76
2023-05-24T12:22:19.958Z,65.75
2023-05-24T12:24:52.287Z,65.70
2023-05-24T12:27:19.846Z,66.36
2023-05-24T12:29:49.076Z,66.20
2023-05-24T12:32:17.938Z,66.35
2023-05-24T12:34:45.575Z,66.05
2023-05-24T12:37:15.167Z,66.85
2023-05-24T12:39:44.485Z,67.07
2023-05-24T12:42:15.582Z,67.46
2023-05-24T12:44:43.024Z,68.75
2023-05-24T12:47:12.316Z,68.67
2023-05-24T12:49:39.696Z,67.22
2023-05-24T12:52:07.534Z,67.73
2023-05-24T12:54:35.222Z,68.30
2023-05-24T12:57:03.778Z,67.69
2023-05-24T12:59:31.531Z,68.14
2023-05-24T13:01:59.241Z,67.42
2023-05-24T13:04:27.482Z,67.10
2023-05-24T13:06:55.906Z,67.40
2023-05-24T13:09:23.905Z,67.93
2023-05-24T13:11:52.809Z,68.41
2023-05-24T13:14:20.601Z,67.83
2023-05-24T13:16:49.436Z,67.27
2023-05-24T13:19:17.530Z,67.88
2023-05-24T13:21:45.606Z,68.01
2023-05-24T13:24:16.681Z,67.12
2023-05-24T13:26:45.589Z,66.73
2023-05-24T13:31:45.208Z,66.79
2023-05-24T13:34:12.966Z,66.68
2023-05-24T13:36:40.796Z,67.16
2023-05-24T13:41:42.596Z,68.53
2023-05-24T13:44:10.790Z,68.87
2023-05-24T13:46:39.537Z,67.50
2023-05-24T13:49:09.425Z,68.56
2023-05-24T13:51:38.590Z,69.76
2023-05-24T13:54:07.491Z,71.94
2023-05-24T13:56:36.702Z,74.20
2023-05-24T13:59:05.420Z,72.77
2023-05-24T14:01:35.984Z,72.55
2023-05-24T14:04:05.157Z,72.53
2023-05-24T14:06:34.309Z,72.76
2023-05-24T14:09:01.831Z,72.85
2023-05-24T14:11:31.712Z,73.07
2023-05-24T14:16:30.455Z,73.07
2023-05-24T14:18:58.392Z,73.78
2023-05-24T14:21:27.193Z,74.00
2023-05-24T14:23:54.894Z,74.53
2023-05-24T14:26:23.799Z,74.19
2023-05-24T14:28:54.421Z,74.81
2023-05-24T14:31:24.760Z,74.15
2023-05-24T14:33:52.188Z,74.92
2023-05-24T14:36:19.853Z,76.14
2023-05-24T14:38:47.215Z,75.46
2023-05-24T14:41:15.595Z,75.01
2023-05-24T14:43:42.979Z,75.25
2023-05-24T14:46:10.681Z,75.58
2023-05-24T14:48:37.999Z,75.05
2023-05-24T14:51:05.833Z,74.77
2023-05-24T14:53:33.201Z,75.13
2023-05-24T14:56:00.794Z,75.00
2023-05-24T14:58:28.249Z,75.17
2023-05-24T15:00:56.088Z,75.08
2023-05-24T15:03:23.870Z,74.50
2023-05-24T15:05:52.500Z,74.80
2023-05-24T15:08:20.004Z,74.92
2023-05-24T15:10:48.033Z,73.79
2023-05-24T15:13:15.567Z,74.18
2023-05-24T15:15:43.397Z,73.82
2023-05-24T15:18:10.829Z,73.75
2023-05-24T15:20:38.502Z,73.77
2023-05-24T15:23:06.427Z,73.08
2023-05-24T15:25:34.172Z,73.75
2023-05-24T15:28:01.675Z,73.53
2023-05-24T15:30:29.767Z,73.58
2023-05-24T15:32:57.297Z,73.09
2023-05-24T15:35:24.958Z,72.94
2023-05-24T15:37:52.256Z,72.92
2023-05-24T15:40:23.977Z,72.88
2023-05-24T15:42:52.964Z,73.21
2023-05-24T15:45:21.415Z,73.78
2023-05-24T15:47:48.865Z,73.14
2023-05-24T15:50:21.745Z,72.92
2023-05-24T15:52:53.264Z,73.15
2023-05-24T15:55:21.072Z,73.16
2023-05-24T15:57:48.535Z,72.38
2023-05-24T16:00:16.969Z,72.46
2023-05-24T16:02:44.363Z,73.05
2023-05-24T16:05:12.133Z,73.07
2023-05-24T16:07:39.482Z,73.14
2023-05-24T16:10:07.810Z,73.22
2023-05-24T16:12:35.210Z,72.62
2023-05-24T16:15:03.655Z,72.82
2023-05-24T16:17:31.319Z,72.37
2023-05-24T16:19:59.674Z,72.40
2023-05-24T16:22:27.014Z,72.35
2023-05-24T16:24:54.733Z,71.98
2023-05-24T16:27:22.396Z,72.31
2023-05-24T16:29:50.068Z,72.43
2023-05-24T16:32:18.368Z,72.20
2023-05-24T16:37:19.615Z,72.55
2023-05-24T16:39:47.241Z,72.94
2023-05-24T16:42:14.502Z,73.08
2023-05-24T16:44:42.132Z,73.21
2023-05-24T16:47:09.518Z,73.09
2023-05-24T16:49:37.159Z,73.91
2023-05-24T16:52:04.672Z,73.93
2023-05-24T16:54:32.363Z,74.30
2023-05-24T16:56:59.713Z,74.56
2023-05-24T16:59:27.529Z,74.60
2023-05-24T17:01:54.941Z,75.25
2023-05-24T17:04:22.592Z,75.21
2023-05-24T17:06:49.858Z,75.15
2023-05-24T17:09:17.781Z,75.75
2023-05-24T17:11:45.083Z,75.30
2023-05-24T17:14:12.690Z,75.65
2023-05-24T17:16:40.048Z,75.79
2023-05-24T17:19:07.984Z,75.66
2023-05-24T17:21:36.970Z,76.33
2023-05-24T17:24:04.716Z,76.19
2023-05-24T17:26:32.111Z,76.24
2023-05-24T17:28:59.788Z,76.72
2023-05-24T17:31:27.163Z,76.85
2023-05-24T17:33:55.117Z,76.92
2023-05-24T17:36:22.447Z,76.08
2023-05-24T17:38:50.107Z,75.82
2023-05-24T17:41:17.523Z,76.09
2023-05-24T17:43:45.120Z,75.92
2023-05-24T17:46:13.624Z,75.92
2023-05-24T17:48:42.885Z,75.60
2023-05-24T17:51:11.072Z,75.91
2023-05-24T17:53:41.129Z,75.94
2023-05-24T17:56:09.040Z,76.19
2023-05-24T17:58:37.548Z,76.07
2023-05-24T18:01:07.502Z,75.75
2023-05-24T18:03:37.311Z,75.74
2023-05-24T18:06:07.121Z,75.72
2023-05-24T18:08:38.348Z,75.91
2023-05-24T18:11:09.662Z,76.43
2023-05-24T18:13:39.256Z,76.53
2023-05-24T18:16:08.365Z,76.30
2023-05-24T18:18:37.845Z,77.13
2023-05-24T18:21:06.219Z,76.72
2023-05-24T18:23:37.677Z,76.57
2023-05-24T18:26:10.620Z,76.58
2023-05-24T18:28:39.593Z,76.51
2023-05-24T18:31:10.863Z,76.87
2023-05-24T18:33:39.180Z,76.44
2023-05-24T18:36:07.155Z,76.50
2023-05-24T18:38:36.720Z,76.56
2023-05-24T18:41:06.287Z,76.65
2023-05-24T18:43:34.352Z,76.78
2023-05-24T18:46:02.102Z,77.15
2023-05-24T18:48:29.810Z,77.27
2023-05-24T18:50:57.203Z,77.13
2023-05-24T18:53:25.999Z,76.99
2023-05-24T18:55:53.347Z,77.44
2023-05-24T18:58:21.094Z,77.40
2023-05-24T19:00:48.451Z,77.39
2023-05-24T19:03:16.677Z,77.79
2023-05-24T19:05:44.416Z,77.99
2023-05-24T19:08:12.281Z,78.00
2023-05-24T19:10:39.665Z,78.09
2023-05-24T19:13:07.616Z,77.94
2023-05-24T19:15:36.802Z,77.95
2023-05-24T19:18:04.854Z,77.55
2023-05-24T19:20:32.153Z,77.75
2023-05-24T19:22:59.822Z,77.68
2023-05-24T19:25:27.185Z,78.02
2023-05-24T19:27:59.716Z,78.05
2023-05-24T19:30:28.051Z,78.11
2023-05-24T19:32:55.858Z,77.91
2023-05-24T19:35:23.322Z,77.71
2023-05-24T19:37:52.322Z,77.62
2023-05-24T19:40:20.637Z,78.20
2023-05-24T19:42:48.268Z,78.31
2023-05-24T19:45:16.467Z,77.96
2023-05-24T19:47:45.380Z,78.03
2023-05-24T19:50:12.797Z,78.09
2023-05-24T19:52:40.498Z,78.21
2023-05-24T19:55:08.607Z,78.17
2023-05-24T19:57:36.360Z,77.96
2023-05-24T20:00:05.124Z,78.41
2023-05-24T20:02:34.870Z,78.21
2023-05-24T20:05:04.348Z,78.40
2023-05-24T20:07:32.061Z,78.42
2023-05-24T20:09:59.450Z,78.44
2023-05-24T20:12:30.912Z,78.03
2023-05-24T20:14:58.255Z,78.33
2023-05-24T20:17:25.918Z,78.56
2023-05-24T20:19:53.277Z,78.52
2023-05-24T20:22:21.250Z,78.26
2023-05-24T20:24:48.614Z,78.30
2023-05-24T20:27:16.425Z,78.70
2023-05-24T20:29:43.816Z,78.43
2023-05-24T20:32:12.091Z,78.35
2023-05-24T20:34:39.599Z,78.60
2023-05-24T20:37:07.266Z,78.74
2023-05-24T20:39:34.718Z,78.84
2023-05-24T20:42:02.357Z,78.56
2023-05-24T20:44:29.707Z,78.78
2023-05-24T20:46:57.296Z,78.80
2023-05-24T20:49:24.635Z,78.54
2023-05-24T20:51:52.234Z,78.78
2023-05-24T20:54:19.574Z,79.06
2023-05-24T20:56:47.164Z,78.96
2023-05-24T20:59:14.584Z,79.11
2023-05-24T21:01:42.503Z,78.93
2023-05-24T21:04:10.039Z,79.11
2023-05-24T21:06:39.620Z,78.70
2023-05-24T21:09:06.949Z,78.75
2023-05-24T21:11:34.743Z,78.58
2023-05-24T21:14:02.198Z,78.63
2023-05-24T21:16:30.106Z,78.34
2023-05-24T21:19:01.081Z,78.58
2023-05-24T21:21:28.840Z,78.88
2023-05-24T21:23:56.757Z,78.81
2023-05-24T21:26:24.505Z,78.76
2023-05-24T21:28:52.046Z,79.02
2023-05-24T21:31:20.963Z,78.75
2023-05-24T21:33:48.380Z,79.06
2023-05-24T21:36:16.227Z,79.23
2023-05-24T21:38:43.716Z,79.10
2023-05-24T21:41:11.301Z,78.90
2023-05-24T21:43:42.908Z,79.25
2023-05-24T21:46:10.726Z,78.74
2023-05-24T21:48:38.107Z,79.05
2023-05-24T21:51:06.051Z,78.88
2023-05-24T21:53:35.070Z,79.17
2023-05-24T21:56:03.033Z,79.30
2023-05-24T21:58:30.495Z,79.15
2023-05-24T22:00:58.238Z,79.28
2023-05-24T22:03:25.989Z,79.06
2023-05-24T22:05:53.731Z,79.22
2023-05-24T22:08:21.259Z,79.33
2023-05-24T22:10:48.834Z,79.27
2023-05-24T22:13:16.257Z,79.16
2023-05-24T22:15:44.200Z,79.20
2023-05-24T22:18:12.807Z,79.33
2023-05-24T22:20:40.455Z,79.23
2023-05-24T22:23:07.757Z,79.45
2023-05-24T22:25:35.338Z,79.26
2023-05-24T22:28:02.656Z,79.52
2023-05-24T22:30:32.120Z,79.27
2023-05-24T22:32:59.474Z,79.50
2023-05-24T22:35:27.237Z,79.40
2023-05-24T22:37:54.658Z,79.36
2023-05-24T22:40:22.419Z,79.33
2023-05-24T22:42:49.747Z,79.58
2023-05-24T22:45:18.617Z,79.36
2023-05-24T22:47:49.253Z,79.34
2023-05-24T22:50:17.034Z,79.32
2023-05-24T22:52:46.737Z,79.48
2023-05-24T22:55:14.294Z,79.43
2023-05-24T22:57:41.737Z,79.70
2023-05-24T23:00:10.221Z,79.30
2023-05-24T23:02:38.098Z,79.39
2023-05-24T23:05:06.764Z,79.56
2023-05-24T23:07:34.076Z,79.69
2023-05-24T23:10:01.702Z,79.36
2023-05-24T23:12:29.280Z,79.59
2023-05-24T23:14:58.445Z,79.62
2023-05-24T23:17:26.480Z,79.24
2023-05-24T23:19:54.301Z,79.41
2023-05-24T23:22:23.718Z,79.43
2023-05-24T23:24:51.695Z,79.72
2023-05-24T23:27:19.285Z,79.74
2023-05-24T23:29:46.928Z,79.83
2023-05-24T23:32:14.266Z,79.97
2023-05-24T23:34:41.889Z,80.05
2023-05-24T23:37:09.245Z,80.33
2023-05-24T23:39:36.949Z,79.96
2023-05-24T23:42:04.941Z,80.02
2023-05-24T23:44:32.808Z,80.22
2023-05-24T23:47:00.169Z,80.26
2023-05-24T23:49:27.821Z,80.34
2023-05-24T23:51:55.169Z,80.45
2023-05-24T23:54:22.750Z,80.22
2023-05-24T23:56:50.826Z,80.72
2023-05-24T23:59:18.429Z,80.76
